Time;durP1;ratioP1;P1;durP2;ratioP2;P2;SDS_P1;SDS_P2;PMS_P1;PMS_P2;Temp;Humidity;BMP_temperature;BMP_pressure;BME280_temperature;BME280_humidity;BME280_pressure;Samples;Min_cycle;Max_cycle;Signal;HPM_P1;HPM_P2
2022/11/12 00:09:30;;;;;;;0.20;0.03;;;18.70;99.90;;;;;;25508835;23;20441;-67
2022/11/12 00:19:34;;;;;;;0.20;0.00;;;18.70;99.90;;;;;;25507173;23;20381;-69
2022/11/12 00:29:40;;;;;;;0.20;0.03;;;18.60;99.90;;;;;;25510423;23;20387;-69
2022/11/12 00:39:43;;;;;;;0.20;0.03;;;18.50;99.90;;;;;;25533950;23;20388;-69
2022/11/12 00:49:48;;;;;;;0.20;0.00;;;18.30;99.90;;;;;;25540507;23;20385;-68
2022/11/12 00:59:52;;;;;;;0.20;0.00;;;18.20;99.90;;;;;;25516320;23;20389;-69
2022/11/12 01:09:58;;;;;;;0.20;0.10;;;18.10;99.90;;;;;;25542425;23;20373;-68
2022/11/12 01:20:01;;;;;;;0.20;0.00;;;17.90;99.90;;;;;;25512979;23;20369;-70
2022/11/12 01:30:08;;;;;;;0.20;0.00;;;17.90;99.90;;;;;;25539477;23;20381;-70
2022/11/12 01:40:13;;;;;;;0.20;0.00;;;17.90;99.90;;;;;;25540924;23;20369;-69
2022/11/12 01:50:25;;;;;;;0.20;0.00;;;17.90;99.90;;;;;;25537981;23;20403;-68
2022/11/12 02:00:29;;;;;;;0.20;0.00;;;17.80;99.90;;;;;;25540419;23;20415;-68
2022/11/12 02:10:35;;;;;;;0.20;0.00;;;17.90;99.90;;;;;;25539324;23;20376;-69
2022/11/12 02:20:39;;;;;;;0.20;0.00;;;17.80;99.90;;;;;;25540381;23;20369;-68
2022/11/12 02:30:47;;;;;;;0.20;0.00;;;17.70;99.90;;;;;;25514210;23;20389;-69
2022/11/12 02:40:51;;;;;;;0.20;0.00;;;17.60;99.90;;;;;;25514025;23;20881;-68
2022/11/12 02:50:56;;;;;;;0.20;0.00;;;17.70;99.90;;;;;;25511956;23;20389;-69
2022/11/12 03:01:00;;;;;;;0.20;0.00;;;18.00;99.90;;;;;;25537936;23;20365;-71
2022/11/12 03:11:10;;;;;;;0.20;0.00;;;18.00;99.90;;;;;;25538165;23;20677;-69
2022/11/12 03:21:13;;;;;;;0.20;0.00;;;17.90;99.90;;;;;;25536335;23;20499;-69
2022/11/12 03:31:19;;;;;;;0.20;0.00;;;18.00;99.90;;;;;;25537067;23;20381;-68
2022/11/12 03:41:23;;;;;;;0.20;0.00;;;18.00;99.90;;;;;;25536188;23;20369;-69
2022/11/12 03:51:28;;;;;;;0.20;0.00;;;18.10;99.90;;;;;;25510161;23;20381;-68
2022/11/12 04:01:32;;;;;;;0.20;0.00;;;18.10;99.90;;;;;;25536063;23;20373;-68
2022/11/12 04:11:37;;;;;;;0.20;0.00;;;18.00;99.90;;;;;;25509254;23;20388;-70
2022/11/12 04:21:53;;;;;;;0.20;0.03;;;17.90;99.90;;;;;;25534987;23;20385;-69
2022/11/12 04:31:58;;;;;;;0.20;0.00;;;17.70;99.90;;;;;;25509899;23;20485;-70
2022/11/12 04:52:26;;;;;;;0.20;0.03;;;17.20;99.90;;;;;;25529937;23;20405;-69
2022/11/12 05:02:29;;;;;;;0.20;0.00;;;17.00;99.90;;;;;;25535291;23;20354;-68
2022/11/12 05:12:35;;;;;;;0.20;0.10;;;16.60;99.90;;;;;;25532001;23;20408;-70
2022/11/12 05:22:38;;;;;;;0.20;0.00;;;16.30;99.90;;;;;;25533512;23;20439;-69
2022/11/12 05:32:58;;;;;;;0.20;0.00;;;16.20;99.90;;;;;;25510117;23;20416;-69
2022/11/12 05:43:02;;;;;;;0.20;0.00;;;16.40;99.90;;;;;;25539590;23;20377;-71
2022/11/12 05:53:07;;;;;;;0.20;0.10;;;17.00;99.90;;;;;;25514143;23;20381;-69
2022/11/12 06:03:12;;;;;;;0.20;0.00;;;17.30;99.90;;;;;;25514664;23;20374;-70
2022/11/12 06:13:17;;;;;;;0.20;0.00;;;17.40;99.90;;;;;;25539911;23;20382;-69
2022/11/12 06:23:21;;;;;;;0.20;0.00;;;17.70;99.90;;;;;;25538402;23;20408;-69
2022/11/12 06:33:26;;;;;;;0.20;0.00;;;17.90;99.90;;;;;;25539100;23;20373;-69
2022/11/12 06:43:32;;;;;;;0.20;0.00;;;18.00;99.90;;;;;;25538067;23;20453;-69
2022/11/12 06:53:38;;;;;;;0.20;0.00;;;18.20;99.90;;;;;;25511970;23;20384;-67
2022/11/12 07:03:43;;;;;;;0.20;0.00;;;18.30;99.90;;;;;;25506679;23;20365;-69
2022/11/12 07:13:48;;;;;;;0.20;0.00;;;18.20;99.90;;;;;;25533708;23;20385;-69
2022/11/12 07:23:52;;;;;;;0.20;0.00;;;18.50;99.90;;;;;;25508061;23;20381;-70
2022/11/12 07:33:58;;;;;;;0.20;0.00;;;18.70;99.90;;;;;;25506729;23;20377;-71
2022/11/12 07:44:01;;;;;;;0.20;0.00;;;18.80;99.90;;;;;;25533713;23;20366;-69
2022/11/12 07:54:06;;;;;;;0.20;0.00;;;19.00;99.90;;;;;;25531179;23;20412;-69
2022/11/12 08:04:12;;;;;;;0.20;0.00;;;19.60;99.90;;;;;;25533447;23;20369;-69
2022/11/12 08:14:17;;;;;;;0.20;0.00;;;19.60;99.90;;;;;;25531956;23;20385;-69
2022/11/12 08:24:21;;;;;;;0.20;0.00;;;19.40;99.90;;;;;;25532294;23;20400;-70
2022/11/12 08:34:27;;;;;;;0.20;0.00;;;19.20;99.90;;;;;;25506833;23;20401;-72
2022/11/12 08:44:30;;;;;;;0.20;0.00;;;19.20;99.90;;;;;;25528936;23;20369;-69
2022/11/12 08:54:36;;;;;;;0.20;0.00;;;20.00;99.90;;;;;;25528799;23;20407;-70
2022/11/12 09:04:39;;;;;;;0.20;0.00;;;20.40;99.90;;;;;;25504952;23;20376;-70
2022/11/12 09:14:45;;;;;;;0.20;0.00;;;20.10;99.90;;;;;;25537326;23;20388;-70
2022/11/12 09:24:49;;;;;;;0.20;0.00;;;20.30;99.90;;;;;;25534678;23;20368;-71
2022/11/12 09:34:55;;;;;;;0.20;0.00;;;20.50;99.90;;;;;;25537950;23;20434;-72
2022/11/12 09:45:05;;;;;;;0.20;0.00;;;20.80;99.90;;;;;;25509849;23;20372;-71
2022/11/12 09:55:29;;;;;;;0.20;0.00;;;21.00;99.90;;;;;;25535719;23;20481;-72
2022/11/12 10:05:36;;;;;;;0.20;0.00;;;21.10;99.90;;;;;;25532255;23;20911;-72
2022/11/12 10:26:14;;;;;;;0.20;0.10;;;22.20;99.90;;;;;;25509312;23;20370;-71
2022/11/12 10:36:28;;;;;;;0.20;0.00;;;22.10;99.90;;;;;;25534332;23;21159;-71
2022/11/12 10:46:36;;;;;;;0.20;0.10;;;22.20;99.90;;;;;;25507545;23;20494;-70
2022/11/12 10:56:41;;;;;;;0.20;0.00;;;22.60;99.90;;;;;;25530433;23;20369;-71
2022/11/12 11:06:44;;;;;;;0.20;0.00;;;23.40;99.90;;;;;;25531836;23;20377;-70
2022/11/12 11:16:51;;;;;;;0.20;0.00;;;23.50;99.90;;;;;;25526362;23;20380;-72
2022/11/12 11:27:03;;;;;;;0.20;0.03;;;23.50;99.90;;;;;;25533657;23;20884;-71
2022/11/12 11:37:22;;;;;;;0.20;0.10;;;23.90;99.90;;;;;;25530438;23;20392;-72
2022/11/12 11:47:37;;;;;;;0.20;0.00;;;23.80;99.90;;;;;;25528042;23;20436;-72
2022/11/12 11:58:34;;;;;;;0.20;0.00;;;23.50;99.90;;;;;;25529324;23;20377;-70
2022/11/12 12:08:59;;;;;;;0.20;0.00;;;22.30;99.90;;;;;;25529108;23;20381;-70
2022/11/12 12:19:13;;;;;;;0.20;0.00;;;23.60;99.90;;;;;;25529097;23;20376;-73
2022/11/12 12:29:24;;;;;;;0.20;0.00;;;22.80;99.90;;;;;;25501001;23;20388;-69
2022/11/12 12:39:37;;;;;;;0.20;0.00;;;22.70;99.90;;;;;;25523966;23;20366;-70
2022/11/12 12:49:52;;;;;;;0.20;0.00;;;23.10;99.90;;;;;;25526114;23;20381;-71
2022/11/12 13:00:31;;;;;;;0.20;0.00;;;23.30;99.90;;;;;;25526599;23;20377;-71
2022/11/12 13:10:49;;;;;;;0.20;0.00;;;22.50;99.90;;;;;;25529480;23;20448;-71
2022/11/12 13:21:10;;;;;;;0.20;0.00;;;22.90;99.90;;;;;;25504987;23;20392;-71
2022/11/12 13:31:28;;;;;;;0.20;0.10;;;23.20;99.90;;;;;;25529065;23;20385;-71
2022/11/12 13:51:57;;;;;;;0.20;0.00;;;23.00;99.90;;;;;;25530151;23;20388;-70
2022/11/12 14:02:05;;;;;;;0.20;0.03;;;23.40;99.90;;;;;;25534304;23;20369;-69
2022/11/12 14:12:36;;;;;;;0.20;0.00;;;23.50;99.90;;;;;;25533170;23;20369;-70
2022/11/12 14:22:42;;;;;;;0.20;0.00;;;24.30;99.90;;;;;;25503988;23;20365;-71
2022/11/12 14:32:48;;;;;;;0.20;0.00;;;24.80;99.90;;;;;;25487331;23;20377;-71
2022/11/12 14:42:54;;;;;;;0.20;0.00;;;23.00;99.90;;;;;;25536874;23;20369;-71
2022/11/12 14:53:01;;;;;;;0.20;0.00;;;22.60;99.90;;;;;;25532288;23;20381;-71
2022/11/12 15:03:09;;;;;;;0.20;0.00;;;23.00;99.90;;;;;;25532568;23;20362;-70
2022/11/12 15:13:16;;;;;;;0.20;0.00;;;22.70;99.90;;;;;;25533124;23;20381;-72
2022/11/12 15:23:22;;;;;;;0.20;0.00;;;22.00;99.90;;;;;;25531108;23;20373;-70
2022/11/12 15:33:26;;;;;;;0.20;0.00;;;21.40;99.90;;;;;;25533863;23;20377;-71
2022/11/12 15:43:35;;;;;;;0.20;0.00;;;21.00;99.90;;;;;;25528984;23;20419;-70
2022/11/12 15:53:42;;;;;;;0.20;0.00;;;20.60;99.90;;;;;;25530277;23;20392;-71
2022/11/12 16:03:47;;;;;;;0.20;0.00;;;20.20;99.90;;;;;;25528945;23;20369;-71
2022/11/12 16:13:51;;;;;;;0.20;0.00;;;20.00;99.90;;;;;;25528867;23;20388;-71
2022/11/12 16:23:56;;;;;;;0.20;0.00;;;19.80;99.90;;;;;;25505223;23;20373;-71
2022/11/12 16:34:01;;;;;;;0.20;0.00;;;19.50;99.90;;;;;;25528590;23;20388;-67
2022/11/12 16:44:06;;;;;;;0.20;0.00;;;19.30;99.90;;;;;;25525348;23;20825;-71
2022/11/12 16:54:10;;;;;;;0.20;0.00;;;19.20;99.90;;;;;;25522371;23;20380;-71
2022/11/12 17:04:15;;;;;;;0.20;0.00;;;19.20;99.90;;;;;;25493913;23;20377;-70
2022/11/12 17:14:19;;;;;;;0.20;0.00;;;18.80;99.90;;;;;;25520245;23;20381;-71
2022/11/12 17:24:31;;;;;;;0.20;0.00;;;18.80;99.90;;;;;;25493735;23;20385;-71
2022/11/12 17:34:35;;;;;;;0.20;0.00;;;18.60;99.90;;;;;;25529019;23;20472;-71
2022/11/12 17:44:41;;;;;;;0.20;0.00;;;18.40;99.90;;;;;;25531318;23;20377;-72
2022/11/12 17:54:45;;;;;;;0.20;0.00;;;18.70;99.90;;;;;;25529903;23;20401;-71
2022/11/12 18:04:50;;;;;;;0.20;0.00;;;18.40;99.90;;;;;;25493911;23;20423;-71
2022/11/12 18:14:53;;;;;;;0.20;0.00;;;18.40;99.90;;;;;;25528845;23;20397;-69
2022/11/12 18:24:58;;;;;;;0.20;0.00;;;18.40;99.90;;;;;;25528362;23;20388;-70
2022/11/12 18:35:02;;;;;;;0.20;0.00;;;18.40;99.90;;;;;;25502121;23;20381;-74
2022/11/12 18:45:09;;;;;;;0.20;0.00;;;18.40;99.90;;;;;;25528194;23;20389;-70
2022/11/12 18:55:16;;;;;;;0.20;0.00;;;18.10;99.90;;;;;;25505494;23;20385;-72
2022/11/12 19:05:21;;;;;;;0.20;0.05;;;18.00;99.90;;;;;;25524646;23;20404;-73
2022/11/12 19:15:25;;;;;;;0.20;0.00;;;17.80;99.90;;;;;;25525391;23;20389;-70
2022/11/12 19:25:31;;;;;;;0.20;0.00;;;17.50;99.90;;;;;;25497393;23;20373;-72
2022/11/12 19:35:40;;;;;;;0.20;0.00;;;17.20;99.90;;;;;;25526726;23;20724;-72
2022/11/12 19:45:45;;;;;;;0.20;0.00;;;16.80;99.90;;;;;;25525133;23;20381;-71
2022/11/12 19:55:49;;;;;;;0.20;0.00;;;16.60;99.90;;;;;;25519364;23;20448;-70
2022/11/12 20:06:00;;;;;;;0.20;0.10;;;16.30;99.90;;;;;;25519718;23;20372;-70
2022/11/12 20:16:08;;;;;;;0.20;0.00;;;16.10;99.90;;;;;;25497305;23;20465;-70
2022/11/12 20:26:15;;;;;;;0.20;0.10;;;15.90;99.90;;;;;;25497393;23;20357;-70
2022/11/12 20:36:20;;;;;;;0.20;0.10;;;15.70;99.90;;;;;;25525208;23;20377;-69
2022/11/12 20:46:26;;;;;;;0.20;0.00;;;15.70;99.90;;;;;;25523530;23;20392;-71
2022/11/12 20:56:31;;;;;;;0.20;0.10;;;15.60;99.90;;;;;;25525720;23;20374;-71
2022/11/12 21:17:30;;;;;;;0.20;0.00;;;16.00;99.90;;;;;;25533541;23;20377;-70
2022/11/12 21:27:39;;;;;;;0.20;0.10;;;16.20;99.90;;;;;;25533232;23;20448;-70
2022/11/12 21:37:56;;;;;;;0.20;0.10;;;16.50;99.90;;;;;;25534558;23;20863;-70
2022/11/12 21:48:01;;;;;;;0.20;0.10;;;16.80;99.90;;;;;;25531034;23;20361;-72
2022/11/12 21:58:06;;;;;;;0.20;0.00;;;17.00;99.90;;;;;;25536302;23;20412;-72
2022/11/12 22:08:11;;;;;;;0.20;0.00;;;17.10;99.90;;;;;;25509218;23;20365;-71
2022/11/12 22:18:15;;;;;;;0.20;0.00;;;17.10;99.90;;;;;;25534705;23;20400;-70
2022/11/12 22:28:20;;;;;;;0.20;0.10;;;17.20;99.90;;;;;;25483547;23;20409;-72
2022/11/12 22:38:24;;;;;;;0.20;0.00;;;17.10;99.90;;;;;;25534906;23;20366;-71
2022/11/12 22:48:30;;;;;;;0.20;0.00;;;17.10;99.90;;;;;;25535315;23;20365;-70
2022/11/12 22:58:36;;;;;;;0.20;0.10;;;17.10;99.90;;;;;;25510357;23;20388;-72
2022/11/12 23:08:41;;;;;;;0.20;0.00;;;17.00;99.90;;;;;;25534762;23;20389;-70
2022/11/12 23:18:45;;;;;;;0.20;0.10;;;16.80;99.90;;;;;;25482737;23;20392;-70
2022/11/12 23:28:51;;;;;;;0.20;0.10;;;16.50;99.90;;;;;;25506425;23;20385;-71
2022/11/12 23:38:55;;;;;;;0.20;0.00;;;16.10;99.90;;;;;;25535390;23;20385;-71
2022/11/12 23:49:01;;;;;;;0.20;0.10;;;15.90;99.90;;;;;;25534413;23;20384;-69
2022/11/12 23:59:04;;;;;;;0.20;0.10;;;15.90;99.90;;;;;;25534716;23;20385;-70
